Time;durP1;ratioP1;P1;durP2;ratioP2;P2;SDS_P1;SDS_P2;PMS_P1;PMS_P2;Temp;Humidity;BMP_temperature;BMP_pressure;BME280_temperature;BME280_humidity;BME280_pressure;Samples;Min_cycle;Max_cycle;Signal;HPM_P1;HPM_P2
2023/05/03 00:01:33;;;;;;;4.88;2.10;;;10.90;67.80;;;;;;5113495;28;20050;-73
2023/05/03 00:03:58;;;;;;;5.38;2.05;;;10.90;67.80;;;;;;5114511;28;20038;-73
2023/05/03 00:06:24;;;;;;;4.13;1.80;;;10.80;68.00;;;;;;5114465;28;20039;-73
2023/05/03 00:08:50;;;;;;;3.60;1.90;;;10.80;68.00;;;;;;5114520;28;20054;-73
2023/05/03 00:11:15;;;;;;;3.80;1.77;;;10.80;68.80;;;;;;5114403;28;20073;-73
2023/05/03 00:13:41;;;;;;;3.63;2.17;;;10.70;68.10;;;;;;5114314;28;20028;-73
2023/05/03 00:16:07;;;;;;;4.65;2.13;;;10.70;68.40;;;;;;5114197;28;20058;-73
2023/05/03 00:18:32;;;;;;;4.65;2.15;;;10.60;69.10;;;;;;5113294;28;20035;-73
2023/05/03 00:20:58;;;;;;;2.97;2.20;;;10.60;69.40;;;;;;5112961;28;20028;-73
2023/05/03 00:23:25;;;;;;;3.50;2.00;;;10.60;69.90;;;;;;5114069;28;20039;-73
2023/05/03 00:25:52;;;;;;;4.45;2.42;;;10.50;69.60;;;;;;5114140;28;20044;-73
2023/05/03 00:28:18;;;;;;;4.88;2.25;;;10.50;69.60;;;;;;5113038;28;20016;-73
2023/05/03 00:30:44;;;;;;;4.10;2.20;;;10.50;69.60;;;;;;5113115;28;20110;-73
2023/05/03 00:33:09;;;;;;;5.90;2.22;;;10.40;69.50;;;;;;5113983;28;20027;-73
2023/05/03 00:35:35;;;;;;;4.22;2.13;;;10.40;69.60;;;;;;5113762;28;20040;-73
2023/05/03 00:38:01;;;;;;;4.22;2.33;;;10.40;70.60;;;;;;5113879;28;20050;-73
2023/05/03 00:40:26;;;;;;;4.15;2.03;;;10.40;69.90;;;;;;5113847;28;20049;-73
2023/05/03 00:42:52;;;;;;;4.97;2.05;;;10.40;70.00;;;;;;5113088;28;20028;-73
2023/05/03 00:45:17;;;;;;;4.75;2.40;;;10.30;70.10;;;;;;5112873;28;20036;-73
2023/05/03 00:47:43;;;;;;;5.47;2.13;;;10.30;70.20;;;;;;5113865;28;20028;-73
2023/05/03 00:50:10;;;;;;;4.72;2.15;;;10.30;70.50;;;;;;5113691;28;20032;-73
2023/05/03 00:52:38;;;;;;;5.47;2.30;;;10.30;70.40;;;;;;5112690;28;20050;-73
2023/05/03 00:55:04;;;;;;;4.25;2.00;;;10.20;70.40;;;;;;5113622;28;20024;-73
2023/05/03 00:57:30;;;;;;;3.83;2.30;;;10.20;70.50;;;;;;5113759;28;20028;-73
2023/05/03 00:59:56;;;;;;;4.20;2.42;;;10.10;70.60;;;;;;5113575;28;20050;-73
2023/05/03 01:02:23;;;;;;;4.70;2.08;;;10.10;70.60;;;;;;5113587;28;20024;-73
2023/05/03 01:04:50;;;;;;;3.88;2.13;;;10.10;70.80;;;;;;5112644;28;20012;-73
2023/05/03 01:07:27;;;;;;;6.00;2.50;;;10.10;71.20;;;;;;5113487;28;20063;-73
2023/05/03 01:10:05;;;;;;;4.63;2.20;;;10.10;71.30;;;;;;5113502;28;20084;-73
2023/05/03 01:12:54;;;;;;;4.90;2.17;;;10.10;71.10;;;;;;5113654;28;20027;-73
2023/05/03 01:15:58;;;;;;;3.67;2.10;;;10.00;71.10;;;;;;5113411;28;20028;-73
2023/05/03 01:18:33;;;;;;;3.42;2.00;;;10.00;71.00;;;;;;5113386;28;20027;-73
2023/05/03 01:21:01;;;;;;;4.13;1.92;;;9.90;71.10;;;;;;5113412;28;20020;-72
2023/05/03 01:23:33;;;;;;;4.43;2.15;;;9.90;71.10;;;;;;5113306;28;20043;-73
2023/05/03 01:25:58;;;;;;;4.07;2.00;;;9.80;71.20;;;;;;5113340;28;20024;-72
2023/05/03 01:28:24;;;;;;;3.15;1.92;;;9.80;71.50;;;;;;5113272;28;20036;-73
2023/05/03 01:30:52;;;;;;;4.93;2.05;;;9.60;72.70;;;;;;5113239;28;20111;-73
2023/05/03 01:33:47;;;;;;;3.45;2.05;;;9.60;71.90;;;;;;5113147;28;20046;-73
2023/05/03 01:36:19;;;;;;;3.40;2.10;;;9.60;72.10;;;;;;5113176;28;20039;-73
2023/05/03 01:38:46;;;;;;;4.57;1.90;;;9.60;72.30;;;;;;5112416;28;20016;-72
2023/05/03 01:41:14;;;;;;;4.50;1.85;;;9.60;72.60;;;;;;5112308;28;20020;-73
2023/05/03 01:43:42;;;;;;;3.28;1.98;;;9.60;72.50;;;;;;5113186;28;20043;-73
2023/05/03 01:46:08;;;;;;;3.83;1.85;;;9.60;72.30;;;;;;5113132;28;20050;-73
2023/05/03 01:48:33;;;;;;;7.05;2.42;;;9.60;72.30;;;;;;5112178;28;20032;-73
2023/05/03 01:50:59;;;;;;;3.20;1.95;;;9.50;72.50;;;;;;5113069;28;20031;-73
2023/05/03 01:53:25;;;;;;;3.90;2.10;;;9.50;72.60;;;;;;5113055;28;20044;-72
2023/05/03 01:55:50;;;;;;;4.28;2.10;;;9.50;72.60;;;;;;5112966;28;20038;-72
2023/05/03 01:58:16;;;;;;;3.72;2.10;;;9.50;72.90;;;;;;5112991;28;20036;-73
2023/05/03 02:00:43;;;;;;;4.90;2.10;;;9.50;72.90;;;;;;5112963;28;20020;-73
2023/05/03 02:03:09;;;;;;;5.35;2.45;;;9.60;73.00;;;;;;5113005;28;20020;-73
2023/05/03 02:05:35;;;;;;;3.15;2.20;;;9.60;73.00;;;;;;5112952;28;20035;-72
2023/05/03 02:08:00;;;;;;;3.47;2.15;;;9.50;73.10;;;;;;5112001;28;20029;-72
2023/05/03 02:10:26;;;;;;;5.05;2.28;;;9.60;73.10;;;;;;5112917;28;20106;-73
2023/05/03 02:12:51;;;;;;;4.50;2.13;;;9.50;73.10;;;;;;5112981;28;20055;-73
2023/05/03 02:15:18;;;;;;;3.78;2.05;;;9.50;73.00;;;;;;5112757;28;20032;-73
2023/05/03 02:17:46;;;;;;;3.58;2.38;;;9.50;73.20;;;;;;5113560;28;20032;-73
2023/05/03 02:20:12;;;;;;;5.72;2.58;;;9.50;73.40;;;;;;5116511;28;20017;-73
2023/05/03 02:22:37;;;;;;;4.75;2.28;;;9.40;73.40;;;;;;5115259;28;20062;-73
2023/05/03 02:25:03;;;;;;;4.50;2.30;;;9.30;73.50;;;;;;5098463;28;20032;-73
2023/05/03 02:27:29;;;;;;;5.15;2.65;;;9.30;73.70;;;;;;5116432;28;20044;-73
2023/05/03 02:29:55;;;;;;;3.75;2.42;;;9.20;73.60;;;;;;5116333;28;20036;-72
2023/05/03 02:32:21;;;;;;;5.82;2.42;;;9.30;73.70;;;;;;5115379;28;20024;-72
2023/05/03 02:34:48;;;;;;;4.10;2.22;;;9.20;73.80;;;;;;5116200;28;20024;-72
2023/05/03 02:37:14;;;;;;;4.55;2.60;;;9.20;74.00;;;;;;5116161;28;20028;-72
2023/05/03 02:39:40;;;;;;;6.35;2.47;;;9.30;74.20;;;;;;5116159;28;20021;-73
2023/05/03 02:42:07;;;;;;;5.57;2.10;;;9.20;74.00;;;;;;5116256;28;20051;-73
2023/05/03 02:44:32;;;;;;;4.05;2.33;;;9.20;74.00;;;;;;5116077;28;20075;-72
2023/05/03 02:46:58;;;;;;;3.70;2.40;;;9.10;74.00;;;;;;5115301;28;20032;-72
2023/05/03 02:49:23;;;;;;;5.88;2.72;;;9.10;74.40;;;;;;5115949;28;20040;-72
2023/05/03 02:51:51;;;;;;;6.22;2.78;;;9.10;74.20;;;;;;5114880;28;20052;-72
2023/05/03 02:54:17;;;;;;;4.75;2.25;;;9.00;74.40;;;;;;5115917;28;20028;-72
2023/05/03 02:56:43;;;;;;;4.20;2.40;;;8.90;75.00;;;;;;5114776;28;20028;-73
2023/05/03 02:59:08;;;;;;;7.43;2.42;;;8.80;75.10;;;;;;5114965;28;20027;-72
2023/05/03 03:01:34;;;;;;;3.33;2.03;;;8.80;75.40;;;;;;5116009;28;20397;-73
2023/05/03 03:04:00;;;;;;;3.20;2.10;;;8.80;75.50;;;;;;5114847;28;20024;-72
2023/05/03 03:06:25;;;;;;;5.13;2.50;;;8.80;75.80;;;;;;5115681;28;20036;-73
2023/05/03 03:08:51;;;;;;;3.22;2.22;;;8.80;75.80;;;;;;5114797;28;20024;-73
2023/05/03 03:11:16;;;;;;;6.28;2.40;;;8.70;75.80;;;;;;5114569;28;20039;-72
2023/05/03 03:13:42;;;;;;;6.05;2.28;;;8.70;76.20;;;;;;5115529;28;20024;-72
2023/05/03 03:16:08;;;;;;;5.63;2.50;;;8.60;76.50;;;;;;5115509;28;20032;-73
2023/05/03 03:18:35;;;;;;;5.22;2.75;;;8.50;76.60;;;;;;5115390;28;20027;-72
2023/05/03 03:21:01;;;;;;;5.63;2.47;;;8.50;76.80;;;;;;5115221;28;20027;-74
2023/05/03 03:23:26;;;;;;;3.67;2.20;;;8.50;77.10;;;;;;5115333;28;20028;-72
2023/05/03 03:25:52;;;;;;;6.45;2.20;;;8.50;77.10;;;;;;5115276;28;20032;-73
2023/05/03 03:28:18;;;;;;;3.80;2.22;;;8.50;77.10;;;;;;5115214;28;20043;-73
2023/05/03 03:30:43;;;;;;;6.05;2.53;;;8.60;77.70;;;;;;5114120;28;20042;-72
2023/05/03 03:33:10;;;;;;;5.18;2.33;;;8.60;76.60;;;;;;5115131;28;20032;-73
2023/05/03 03:35:36;;;;;;;3.42;2.05;;;8.70;76.50;;;;;;5114048;28;20038;-72
2023/05/03 03:38:02;;;;;;;4.53;2.50;;;8.70;76.30;;;;;;5115048;28;20020;-72
2023/05/03 03:40:28;;;;;;;3.42;2.28;;;8.70;76.10;;;;;;5114982;28;20031;-72
2023/05/03 03:42:54;;;;;;;5.20;2.83;;;8.70;75.90;;;;;;5115092;28;20058;-72
2023/05/03 03:45:19;;;;;;;6.18;2.60;;;8.70;75.80;;;;;;5096880;28;20024;-73
2023/05/03 03:47:45;;;;;;;3.78;2.00;;;8.70;75.70;;;;;;5114840;28;20157;-72
2023/05/03 03:50:11;;;;;;;4.50;2.28;;;8.60;75.50;;;;;;5114764;28;20048;-73
2023/05/03 03:52:37;;;;;;;4.40;2.60;;;8.60;75.20;;;;;;5114781;28;20059;-72
2023/05/03 03:55:03;;;;;;;5.50;2.40;;;8.60;75.20;;;;;;5114729;28;20032;-72
2023/05/03 03:57:30;;;;;;;5.38;2.25;;;8.50;75.30;;;;;;5114675;28;20032;-72
2023/05/03 03:59:59;;;;;;;3.33;2.10;;;8.50;75.50;;;;;;5114650;28;20054;-72
2023/05/03 04:02:26;;;;;;;3.63;2.50;;;8.40;75.70;;;;;;5096601;28;20020;-73
2023/05/03 04:04:52;;;;;;;5.80;2.60;;;8.40;76.00;;;;;;5114527;28;20486;-72
2023/05/03 04:07:17;;;;;;;6.10;2.83;;;8.30;76.30;;;;;;5114455;28;20039;-72
2023/05/03 04:09:43;;;;;;;4.78;2.58;;;8.30;76.40;;;;;;5114433;28;20159;-72
2023/05/03 04:12:09;;;;;;;4.53;2.35;;;8.30;76.50;;;;;;5113377;28;20054;-72
2023/05/03 04:14:35;;;;;;;4.90;2.10;;;8.30;76.40;;;;;;5113401;28;20028;-72
2023/05/03 04:17:00;;;;;;;4.35;2.60;;;8.30;76.40;;;;;;5114226;28;20055;-72
2023/05/03 04:19:27;;;;;;;5.45;3.08;;;8.30;76.50;;;;;;5113439;28;20024;-72
2023/05/03 04:21:53;;;;;;;4.50;2.20;;;8.30;76.30;;;;;;5114009;28;20044;-73
2023/05/03 04:24:18;;;;;;;4.45;2.70;;;8.30;76.30;;;;;;5112990;28;20107;-72
2023/05/03 04:26:44;;;;;;;4.97;2.80;;;8.20;76.20;;;;;;5114146;28;20047;-72
2023/05/03 04:29:11;;;;;;;4.80;2.47;;;8.20;76.30;;;;;;5114097;28;20370;-72
2023/05/03 04:31:38;;;;;;;3.55;2.40;;;8.20;76.30;;;;;;5113177;28;20025;-72
2023/05/03 04:34:03;;;;;;;3.88;2.40;;;8.20;76.40;;;;;;5113965;28;20087;-73
2023/05/03 04:36:30;;;;;;;4.85;2.35;;;8.20;76.30;;;;;;5113906;28;20055;-73
2023/05/03 04:38:56;;;;;;;5.18;2.47;;;8.20;76.20;;;;;;5112928;28;20036;-73
2023/05/03 04:41:23;;;;;;;7.20;2.75;;;8.20;76.10;;;;;;5112625;28;20111;-73
2023/05/03 04:43:49;;;;;;;4.05;2.20;;;8.20;75.90;;;;;;5114005;28;20028;-73
2023/05/03 04:46:15;;;;;;;3.75;2.15;;;8.20;76.10;;;;;;5113813;28;20386;-73
2023/05/03 04:48:41;;;;;;;4.10;2.40;;;8.10;76.00;;;;;;5113791;28;20027;-73
2023/05/03 04:51:06;;;;;;;7.97;2.88;;;8.10;75.90;;;;;;5113852;28;20028;-73
2023/05/03 04:53:32;;;;;;;4.43;2.47;;;8.10;75.90;;;;;;5112732;28;20073;-72
2023/05/03 04:55:58;;;;;;;5.57;2.47;;;8.10;75.90;;;;;;5113568;28;20035;-73
2023/05/03 04:58:23;;;;;;;3.88;2.30;;;8.10;75.90;;;;;;5112556;28;20028;-72
2023/05/03 05:00:49;;;;;;;5.10;2.35;;;8.10;76.20;;;;;;5112617;28;20025;-72
2023/05/03 05:03:15;;;;;;;5.30;2.42;;;8.10;76.50;;;;;;5112629;28;20055;-72
2023/05/03 05:05:40;;;;;;;7.95;2.58;;;8.10;78.00;;;;;;5113552;28;20087;-72
2023/05/03 05:08:06;;;;;;;4.07;2.45;;;8.20;77.30;;;;;;5113453;28;20050;-72
2023/05/03 05:10:35;;;;;;;5.65;3.03;;;8.20;77.50;;;;;;5113410;28;20107;-72
2023/05/03 05:13:00;;;;;;;6.00;2.63;;;8.20;77.70;;;;;;5113480;28;20062;-72
2023/05/03 05:15:26;;;;;;;4.60;2.60;;;8.20;77.90;;;;;;5113349;28;20028;-72
2023/05/03 05:17:52;;;;;;;6.03;2.50;;;8.30;78.30;;;;;;5112453;28;20036;-72
2023/05/03 05:20:18;;;;;;;5.22;2.45;;;8.30;78.40;;;;;;5113339;28;20032;-72
2023/05/03 05:22:44;;;;;;;5.65;2.70;;;8.40;78.80;;;;;;5113204;28;20052;-72
2023/05/03 05:25:10;;;;;;;6.00;2.53;;;8.50;78.70;;;;;;5113351;28;20046;-72
2023/05/03 05:27:35;;;;;;;6.65;3.33;;;8.50;78.80;;;;;;5112411;28;20568;-73
2023/05/03 05:30:01;;;;;;;7.93;3.25;;;8.60;78.80;;;;;;5112325;28;20028;-73
2023/05/03 05:32:27;;;;;;;5.47;2.90;;;8.60;78.80;;;;;;5113219;28;20032;-72
2023/05/03 05:34:54;;;;;;;6.45;3.10;;;8.60;79.00;;;;;;5113189;28;20493;-73
2023/05/03 05:37:24;;;;;;;5.82;2.72;;;8.70;79.20;;;;;;5112212;28;20024;-73
2023/05/03 05:39:50;;;;;;;5.90;2.83;;;8.80;79.40;;;;;;5112035;28;20048;-73
2023/05/03 05:42:15;;;;;;;4.82;2.90;;;8.80;79.20;;;;;;5113141;28;20031;-73
2023/05/03 05:44:41;;;;;;;5.13;3.00;;;8.80;78.90;;;;;;5113165;28;20024;-73
2023/05/03 05:47:08;;;;;;;7.35;3.22;;;8.80;79.30;;;;;;5113139;28;20020;-72
2023/05/03 05:49:34;;;;;;;6.88;3.10;;;8.90;79.40;;;;;;5113106;28;20028;-72
2023/05/03 05:52:00;;;;;;;4.28;2.75;;;8.90;79.10;;;;;;5113095;28;20051;-72
2023/05/03 05:54:26;;;;;;;5.15;2.75;;;8.90;79.20;;;;;;5115513;28;20027;-72
2023/05/03 05:56:52;;;;;;;6.35;2.88;;;9.00;79.30;;;;;;5116970;28;20047;-72
2023/05/03 05:59:17;;;;;;;6.00;2.90;;;9.00;79.80;;;;;;5116907;28;20032;-72
2023/05/03 06:01:44;;;;;;;5.35;2.80;;;9.00;79.60;;;;;;5116936;28;20050;-72
2023/05/03 06:04:14;;;;;;;6.72;3.00;;;9.00;79.40;;;;;;5116883;28;20012;-72
2023/05/03 06:06:40;;;;;;;3.85;2.47;;;9.10;79.70;;;;;;5116820;28;20038;-72
2023/05/03 06:09:07;;;;;;;6.65;3.15;;;9.10;79.50;;;;;;5115927;28;20055;-72
2023/05/03 06:11:37;;;;;;;7.35;3.03;;;9.20;79.80;;;;;;5116706;28;20088;-73
2023/05/03 06:14:02;;;;;;;6.10;2.90;;;9.20;79.80;;;;;;5116941;28;20027;-72
2023/05/03 06:16:28;;;;;;;8.77;3.28;;;9.10;80.30;;;;;;5116727;28;20024;-72
2023/05/03 06:18:54;;;;;;;5.60;2.95;;;9.20;80.10;;;;;;5115555;28;20019;-72
2023/05/03 06:21:21;;;;;;;5.30;2.92;;;9.20;80.30;;;;;;5116477;28;20023;-72
2023/05/03 06:23:46;;;;;;;5.15;2.63;;;9.20;80.40;;;;;;5116491;28;20032;-72
2023/05/03 06:26:12;;;;;;;6.50;3.03;;;9.40;80.60;;;;;;5115464;28;20032;-72
2023/05/03 06:28:37;;;;;;;5.63;2.88;;;9.40;80.70;;;;;;5116500;28;20032;-72
2023/05/03 06:31:03;;;;;;;6.50;2.70;;;9.40;80.40;;;;;;5116352;28;20036;-72
2023/05/03 06:33:29;;;;;;;6.32;2.83;;;9.50;80.20;;;;;;5115391;28;20054;-72
2023/05/03 06:35:55;;;;;;;9.50;2.95;;;9.60;80.10;;;;;;5116194;28;20039;-73
2023/05/03 06:38:21;;;;;;;5.50;2.45;;;9.60;80.20;;;;;;5116264;28;20048;-74
2023/05/03 06:40:47;;;;;;;6.72;3.13;;;9.70;79.50;;;;;;5116172;28;20008;-74
2023/05/03 06:43:13;;;;;;;7.07;2.67;;;9.70;79.60;;;;;;5116187;28;20013;-75
2023/05/03 06:45:43;;;;;;;5.78;2.95;;;9.80;80.00;;;;;;5116012;28;20082;-74
2023/05/03 06:48:09;;;;;;;6.22;3.03;;;9.80;78.70;;;;;;5115122;28;20020;-75
2023/05/03 06:50:35;;;;;;;9.30;3.13;;;9.80;80.30;;;;;;5116153;28;20074;-74
2023/05/03 06:53:01;;;;;;;7.05;2.90;;;9.80;79.70;;;;;;5115963;28;20035;-74
2023/05/03 06:55:27;;;;;;;11.57;3.50;;;9.80;79.10;;;;;;5114924;28;20083;-74
2023/05/03 06:57:52;;;;;;;10.77;3.70;;;9.90;79.80;;;;;;5098229;28;20020;-74
2023/05/03 07:00:20;;;;;;;5.25;3.15;;;9.90;79.70;;;;;;5115765;28;20028;-74
2023/05/03 07:02:46;;;;;;;7.70;3.30;;;10.00;78.80;;;;;;5098088;28;20028;-74
2023/05/03 07:05:15;;;;;;;10.02;3.15;;;10.00;79.50;;;;;;5115579;28;20059;-74
2023/05/03 07:07:40;;;;;;;6.18;3.15;;;10.10;79.10;;;;;;5115706;28;20028;-74
2023/05/03 07:10:07;;;;;;;7.57;3.50;;;10.20;78.60;;;;;;5115637;28;20032;-74
2023/05/03 07:12:35;;;;;;;6.93;3.30;;;10.20;79.50;;;;;;5114587;28;20012;-74
2023/05/03 07:15:01;;;;;;;5.35;3.33;;;10.30;79.20;;;;;;5115519;28;20024;-74
2023/05/03 07:17:26;;;;;;;6.78;2.92;;;10.40;78.60;;;;;;5114026;28;20059;-74
2023/05/03 07:19:53;;;;;;;4.70;2.67;;;10.50;78.70;;;;;;5114624;28;20054;-73
2023/05/03 07:22:24;;;;;;;7.57;3.03;;;10.50;77.20;;;;;;5114151;28;20052;-74
2023/05/03 07:24:53;;;;;;;7.55;2.80;;;10.50;76.90;;;;;;5114538;28;20061;-74
2023/05/03 07:27:19;;;;;;;5.93;2.75;;;10.60;77.40;;;;;;5114384;28;20021;-74
2023/05/03 07:29:45;;;;;;;5.75;2.92;;;10.60;78.00;;;;;;5115332;28;20423;-73
2023/05/03 07:32:11;;;;;;;6.22;3.28;;;10.70;78.00;;;;;;5097329;28;20028;-73
2023/05/03 07:34:36;;;;;;;6.18;3.35;;;10.80;77.90;;;;;;5115137;28;20020;-74
2023/05/03 07:37:02;;;;;;;7.72;3.13;;;10.90;76.90;;;;;;5114979;28;20060;-73
2023/05/03 07:39:28;;;;;;;5.68;2.88;;;10.90;77.20;;;;;;5097272;28;20024;-73
2023/05/03 07:41:53;;;;;;;6.32;2.90;;;11.00;76.00;;;;;;5114032;28;20060;-73
2023/05/03 07:44:19;;;;;;;8.45;3.28;;;11.00;75.50;;;;;;5114007;28;20046;-74
2023/05/03 07:46:44;;;;;;;7.13;3.60;;;11.00;75.20;;;;;;5114911;28;20060;-74
2023/05/03 07:49:49;;;;;;;9.00;2.65;;;11.10;74.40;;;;;;5114859;28;20133;-73
2023/05/03 07:52:15;;;;;;;7.20;3.10;;;11.10;74.40;;;;;;5114244;28;20020;-74
2023/05/03 07:54:44;;;;;;;6.13;2.70;;;11.00;74.60;;;;;;5113771;28;20032;-75
2023/05/03 07:57:12;;;;;;;5.13;2.53;;;11.10;75.80;;;;;;5080559;28;20024;-74
2023/05/03 07:59:38;;;;;;;5.72;3.00;;;11.10;74.50;;;;;;5114677;28;20054;-74
2023/05/03 08:02:04;;;;;;;5.35;2.88;;;11.10;73.80;;;;;;5114640;28;20028;-74
2023/05/03 08:04:29;;;;;;;7.15;3.53;;;11.20;74.10;;;;;;5113536;28;20032;-74
2023/05/03 08:06:55;;;;;;;8.30;2.88;;;11.20;73.20;;;;;;5114506;28;20042;-74
2023/05/03 08:09:22;;;;;;;6.32;2.95;;;11.40;74.00;;;;;;5096527;28;20028;-73
2023/05/03 08:11:50;;;;;;;5.88;2.72;;;11.50;72.10;;;;;;5113343;28;20035;-73
2023/05/03 08:14:16;;;;;;;3.58;2.20;;;11.50;72.20;;;;;;5096455;28;20040;-74
2023/05/03 08:16:42;;;;;;;6.07;2.35;;;11.60;73.50;;;;;;5113830;28;20043;-73
2023/05/03 08:19:07;;;;;;;4.38;2.33;;;11.60;71.00;;;;;;5114300;28;20025;-74
2023/05/03 08:21:34;;;;;;;5.25;2.22;;;11.60;71.50;;;;;;5113998;28;20473;-74
2023/05/03 08:24:01;;;;;;;4.65;2.33;;;11.60;69.50;;;;;;5096375;28;20012;-74
2023/05/03 08:26:28;;;;;;;6.38;3.03;;;11.60;69.60;;;;;;5114216;28;20043;-74
2023/05/03 08:28:54;;;;;;;4.93;2.38;;;11.70;69.60;;;;;;5113120;28;20028;-74
2023/05/03 08:31:19;;;;;;;7.80;2.75;;;11.80;69.80;;;;;;5114076;28;20036;-74
2023/05/03 08:33:45;;;;;;;5.38;2.65;;;11.80;69.90;;;;;;5113977;28;20032;-74
2023/05/03 08:36:11;;;;;;;9.73;3.35;;;11.80;69.60;;;;;;5113945;28;20035;-74
2023/05/03 08:38:40;;;;;;;6.40;2.83;;;11.80;69.60;;;;;;5113908;28;20095;-74
2023/05/03 08:41:20;;;;;;;6.05;3.00;;;11.90;69.10;;;;;;5113928;28;20016;-73
2023/05/03 08:43:51;;;;;;;5.63;2.95;;;12.00;69.80;;;;;;5114097;28;20035;-74
2023/05/03 08:46:17;;;;;;;4.55;2.42;;;12.20;70.60;;;;;;5113882;28;20020;-74
2023/05/03 08:48:51;;;;;;;4.63;2.30;;;12.40;69.80;;;;;;5113748;28;20096;-74
2023/05/03 08:51:39;;;;;;;6.28;2.75;;;12.50;70.40;;;;;;5113828;28;20028;-74
2023/05/03 08:54:05;;;;;;;3.85;2.40;;;12.60;67.90;;;;;;5113753;28;20039;-73
2023/05/03 08:56:40;;;;;;;4.85;2.38;;;12.70;66.50;;;;;;5113593;28;20165;-74
2023/05/03 08:59:07;;;;;;;8.95;3.05;;;12.70;67.10;;;;;;5112779;28;20038;-73
2023/05/03 09:01:38;;;;;;;5.50;2.58;;;12.60;67.30;;;;;;5113720;28;20020;-72
2023/05/03 09:04:05;;;;;;;4.38;2.40;;;12.70;67.50;;;;;;5113639;28;20020;-73
2023/05/03 09:06:34;;;;;;;6.50;2.90;;;12.80;68.40;;;;;;5113706;28;20053;-73
2023/05/03 09:09:00;;;;;;;6.38;2.72;;;13.00;68.30;;;;;;5113575;28;20028;-73
2023/05/03 09:11:53;;;;;;;3.55;2.25;;;13.10;67.50;;;;;;5112620;28;20035;-73
2023/05/03 09:14:25;;;;;;;5.65;2.60;;;12.90;65.70;;;;;;5113518;28;20028;-73
2023/05/03 09:17:00;;;;;;;4.85;2.53;;;13.00;64.60;;;;;;5093975;28;20040;-73
2023/05/03 09:19:26;;;;;;;3.38;2.17;;;12.80;65.30;;;;;;5112624;28;20031;-73
2023/05/03 09:22:05;;;;;;;5.03;2.55;;;12.80;64.90;;;;;;5113127;28;20060;-74
2023/05/03 09:24:31;;;;;;;6.40;2.63;;;12.80;66.00;;;;;;5112533;28;20441;-73
2023/05/03 09:26:57;;;;;;;7.60;2.33;;;12.90;63.90;;;;;;5112354;28;20106;-73
2023/05/03 09:29:31;;;;;;;5.82;2.63;;;12.80;64.60;;;;;;5117007;28;20028;-73
2023/05/03 09:32:23;;;;;;;4.18;2.50;;;13.00;66.00;;;;;;5117459;28;20031;-73
2023/05/03 09:34:48;;;;;;;5.00;2.67;;;13.20;65.90;;;;;;5116253;28;20051;-73
2023/05/03 09:37:14;;;;;;;4.00;2.33;;;13.30;66.10;;;;;;5116394;28;20032;-73
2023/05/03 09:39:41;;;;;;;5.18;2.53;;;13.40;66.40;;;;;;5117360;28;20045;-73
2023/05/03 09:46:17;;;;;;;5.45;2.50;;;13.70;63.40;;;;;;5035255;28;20037;-73
2023/05/03 09:48:43;;;;;;;4.47;2.47;;;13.80;65.30;;;;;;5031635;28;20032;-73
2023/05/03 09:51:10;;;;;;;3.80;2.33;;;13.80;63.30;;;;;;5116111;28;20031;-73
2023/05/03 09:53:37;;;;;;;4.78;2.67;;;13.80;62.60;;;;;;5116823;28;20032;-74
2023/05/03 09:56:07;;;;;;;5.97;2.70;;;13.70;64.50;;;;;;5114185;28;20048;-74
2023/05/03 09:58:35;;;;;;;4.95;2.33;;;13.90;65.10;;;;;;5115787;28;20062;-74
2023/05/03 10:01:01;;;;;;;4.65;2.38;;;14.00;64.80;;;;;;5117135;28;20066;-74
2023/05/03 10:03:49;;;;;;;7.95;2.83;;;14.10;64.60;;;;;;5115925;28;20032;-74
2023/05/03 10:06:23;;;;;;;7.90;2.60;;;14.30;64.50;;;;;;5116907;28;20019;-74
2023/05/03 10:08:58;;;;;;;8.18;3.22;;;14.40;65.20;;;;;;5116915;28;20035;-74
2023/05/03 10:11:26;;;;;;;4.22;2.50;;;14.50;63.50;;;;;;5117075;28;20052;-74
2023/05/03 10:13:52;;;;;;;10.02;2.80;;;14.60;64.50;;;;;;5115813;28;20085;-74
2023/05/03 10:16:30;;;;;;;6.22;2.67;;;14.80;62.90;;;;;;5116645;28;20032;-73
2023/05/03 10:19:16;;;;;;;4.18;2.72;;;14.80;62.40;;;;;;5116521;28;20028;-74
2023/05/03 10:21:58;;;;;;;7.47;2.50;;;14.80;62.20;;;;;;5116533;28;20062;-74
2023/05/03 10:24:24;;;;;;;6.57;2.80;;;14.90;62.70;;;;;;5116614;28;20079;-74
2023/05/03 10:26:50;;;;;;;4.78;2.70;;;15.00;61.60;;;;;;5116533;28;20281;-74
2023/05/03 10:29:35;;;;;;;5.72;2.70;;;14.90;59.50;;;;;;5116425;28;20020;-73
2023/05/03 10:32:02;;;;;;;4.45;2.80;;;14.90;60.60;;;;;;5115416;28;20044;-74
2023/05/03 10:34:38;;;;;;;4.85;2.60;;;15.00;62.60;;;;;;5116264;28;20028;-74
2023/05/03 10:37:09;;;;;;;5.20;2.72;;;15.00;61.10;;;;;;5116351;28;20052;-74
2023/05/03 10:39:35;;;;;;;4.70;2.60;;;15.10;60.60;;;;;;5115711;28;20017;-74
2023/05/03 10:42:02;;;;;;;4.22;2.45;;;15.20;59.70;;;;;;5116372;28;20043;-74
2023/05/03 10:44:37;;;;;;;6.05;3.00;;;15.30;60.60;;;;;;5116161;28;20043;-74
2023/05/03 10:47:11;;;;;;;4.70;2.63;;;15.30;59.90;;;;;;5116147;28;20027;-74
2023/05/03 10:49:37;;;;;;;5.22;2.80;;;15.30;59.50;;;;;;5116133;28;20031;-74
2023/05/03 10:52:23;;;;;;;5.05;2.67;;;15.40;60.30;;;;;;5115978;28;20044;-74
2023/05/03 10:54:48;;;;;;;3.58;2.63;;;15.50;59.90;;;;;;5115865;28;20035;-74
2023/05/03 10:57:14;;;;;;;5.47;3.00;;;15.60;60.30;;;;;;5115834;28;20028;-74
2023/05/03 10:59:50;;;;;;;4.95;2.92;;;15.70;57.10;;;;;;5115026;28;20020;-74
2023/05/03 11:02:20;;;;;;;6.15;2.97;;;15.60;56.40;;;;;;5115858;28;20388;-74
2023/05/03 11:04:51;;;;;;;6.90;3.42;;;15.60;57.10;;;;;;5115861;28;20095;-74
2023/05/03 11:07:23;;;;;;;6.07;2.80;;;15.70;56.10;;;;;;5114738;28;20028;-74
2023/05/03 11:09:48;;;;;;;3.63;2.80;;;15.50;56.60;;;;;;5115714;28;20032;-74
2023/05/03 11:12:14;;;;;;;5.85;3.17;;;15.60;58.20;;;;;;5115589;28;20054;-74
2023/05/03 11:14:41;;;;;;;5.78;3.05;;;15.30;54.20;;;;;;5115645;28;20092;-74
2023/05/03 11:17:08;;;;;;;7.28;3.50;;;15.10;57.90;;;;;;5114486;28;20028;-74
2023/05/03 11:19:34;;;;;;;8.55;3.55;;;15.30;58.50;;;;;;5115435;28;20046;-74
2023/05/03 11:22:00;;;;;;;3.55;2.55;;;15.20;57.70;;;;;;5115137;28;20044;-74
2023/05/03 11:24:26;;;;;;;6.97;3.25;;;15.40;55.60;;;;;;5114298;28;20028;-74
2023/05/03 11:26:52;;;;;;;5.65;3.08;;;15.40;55.30;;;;;;5114485;28;20029;-74
2023/05/03 11:29:18;;;;;;;5.38;3.20;;;15.40;57.00;;;;;;5115252;28;20028;-74
2023/05/03 11:31:44;;;;;;;7.50;3.50;;;15.50;57.70;;;;;;5115284;28;20031;-74
2023/05/03 11:34:11;;;;;;;6.38;3.10;;;15.40;57.90;;;;;;5115206;28;20054;-74
2023/05/03 11:36:37;;;;;;;8.38;3.40;;;15.50;56.80;;;;;;5114130;28;20032;-73
2023/05/03 11:39:07;;;;;;;5.93;3.25;;;15.70;58.20;;;;;;5097287;28;20082;-74
2023/05/03 11:41:32;;;;;;;8.93;3.42;;;15.90;56.90;;;;;;5114144;28;20024;-74
2023/05/03 11:43:58;;;;;;;6.70;3.10;;;15.80;55.40;;;;;;5097127;28;20050;-74
2023/05/03 11:46:26;;;;;;;6.60;3.65;;;15.80;54.30;;;;;;5113891;28;20102;-74
2023/05/03 11:48:52;;;;;;;6.38;3.28;;;15.70;54.50;;;;;;5114921;28;20089;-75
2023/05/03 11:51:22;;;;;;;10.35;3.55;;;15.80;57.00;;;;;;5113961;28;20024;-74
2023/05/03 11:53:48;;;;;;;5.35;3.08;;;16.00;56.80;;;;;;5114812;28;20032;-74
2023/05/03 11:56:14;;;;;;;4.80;3.08;;;16.20;56.50;;;;;;5113748;28;20036;-74
2023/05/03 11:58:57;;;;;;;6.43;3.30;;;16.20;56.20;;;;;;5114809;28;20016;-74
2023/05/03 12:01:24;;;;;;;7.05;3.13;;;16.40;54.90;;;;;;5114674;28;20050;-74
2023/05/03 12:03:57;;;;;;;6.70;3.08;;;16.50;55.50;;;;;;5113620;28;20028;-74
2023/05/03 12:06:24;;;;;;;6.97;3.58;;;16.60;55.00;;;;;;5114775;28;20032;-74
2023/05/03 12:08:49;;;;;;;6.65;2.92;;;16.80;54.20;;;;;;5114504;28;20059;-74
2023/05/03 12:11:15;;;;;;;5.55;3.28;;;16.90;54.50;;;;;;5114505;28;20012;-74
2023/05/03 12:13:41;;;;;;;6.13;3.00;;;16.90;52.00;;;;;;5114426;28;20031;-75
2023/05/03 12:16:08;;;;;;;6.47;3.53;;;16.70;52.10;;;;;;5113341;28;20074;-74
2023/05/03 12:19:01;;;;;;;4.93;3.22;;;16.70;53.00;;;;;;5114396;28;20511;-74
2023/05/03 12:21:43;;;;;;;;;;;16.80;53.30;;;;;;5114577;28;20101;-75
2023/05/03 12:24:08;;;;;;;9.10;3.35;;;16.90;53.20;;;;;;5114337;28;19923;-74
2023/05/03 12:26:34;;;;;;;5.55;3.13;;;17.00;52.50;;;;;;5114279;28;20028;-74
2023/05/03 12:29:00;;;;;;;6.93;3.58;;;17.00;53.00;;;;;;5113112;28;20035;-74
2023/05/03 12:31:26;;;;;;;4.80;3.20;;;17.00;50.70;;;;;;5113137;28;20036;-74
2023/05/03 12:33:52;;;;;;;4.45;3.38;;;17.00;51.50;;;;;;5112969;28;20020;-74
2023/05/03 12:36:18;;;;;;;4.68;3.53;;;16.90;51.00;;;;;;5114069;28;20057;-75
2023/05/03 12:38:44;;;;;;;5.43;3.50;;;16.80;50.40;;;;;;5113936;28;20047;-74
2023/05/03 12:41:10;;;;;;;6.78;3.08;;;16.70;51.30;;;;;;5113881;28;20024;-74
2023/05/03 12:43:36;;;;;;;6.13;3.22;;;16.90;51.40;;;;;;5113917;28;20020;-74
2023/05/03 12:46:02;;;;;;;5.35;3.35;;;17.10;51.30;;;;;;5112865;28;20024;-74
2023/05/03 12:48:29;;;;;;;6.40;3.75;;;17.30;51.30;;;;;;5113820;28;20028;-74
2023/05/03 12:50:56;;;;;;;5.82;3.58;;;17.30;50.60;;;;;;5112793;28;20028;-74
2023/05/03 12:53:21;;;;;;;5.80;3.53;;;17.40;51.50;;;;;;5113797;28;20053;-74
2023/05/03 12:55:47;;;;;;;5.75;3.25;;;17.50;51.60;;;;;;5113596;28;20028;-74
2023/05/03 12:58:13;;;;;;;7.63;3.20;;;17.60;51.70;;;;;;5113652;28;20016;-74